Time;durP1;ratioP1;P1;durP2;ratioP2;P2;SDS_P1;SDS_P2;PMS_P1;PMS_P2;Temp;Humidity;BMP_temperature;BMP_pressure;BME280_temperature;BME280_humidity;BME280_pressure;Samples;Min_cycle;Max_cycle;Signal;HPM_P1;HPM_P2
2021/05/28 00:00:34;;;;;;;22.13;12.77;;;;;;;14.86;71.69;101295.31;4383462;32;20058;-75
2021/05/28 00:03:00;;;;;;;20.27;13.27;;;;;;;14.90;71.50;101298.81;4378036;32;20144;-75
2021/05/28 00:05:26;;;;;;;21.17;12.98;;;;;;;14.92;71.10;101296.34;4376884;32;20105;-76
2021/05/28 00:07:52;;;;;;;16.55;11.63;;;;;;;14.94;71.05;101298.72;4384866;32;20419;-75
2021/05/28 00:10:18;;;;;;;19.87;13.57;;;;;;;14.89;71.23;101299.28;4376096;32;20105;-75
2021/05/28 00:12:44;;;;;;;20.48;12.73;;;;;;;14.86;71.14;101297.34;4383582;32;20074;-75
2021/05/28 00:15:11;;;;;;;22.27;13.62;;;;;;;14.74;71.48;101301.78;4379874;32;20098;-76
2021/05/28 00:17:38;;;;;;;27.60;14.20;;;;;;;14.73;71.82;101293.72;4375004;32;20152;-75
2021/05/28 00:20:06;;;;;;;24.02;13.65;;;;;;;14.68;72.01;101297.13;4383449;32;20082;-75
2021/05/28 00:22:31;;;;;;;23.67;14.00;;;;;;;14.67;72.10;101298.37;4378359;32;20429;-76
2021/05/28 00:24:58;;;;;;;24.70;14.23;;;;;;;14.62;72.22;101299.75;4375975;32;20038;-75
2021/05/28 00:27:24;;;;;;;23.30;13.85;;;;;;;14.59;72.40;101305.50;4382656;32;20117;-75
2021/05/28 00:29:50;;;;;;;24.48;13.68;;;;;;;14.55;72.51;101297.13;4378811;32;20086;-75
2021/05/28 00:32:16;;;;;;;25.80;14.57;;;;;;;14.49;72.93;101303.81;4377043;32;20059;-75
2021/05/28 00:34:42;;;;;;;21.35;13.90;;;;;;;14.51;72.95;101304.16;4384188;32;20068;-74
2021/05/28 00:37:08;;;;;;;22.33;13.48;;;;;;;14.50;72.90;101308.22;4376383;32;20388;-75
2021/05/28 00:39:34;;;;;;;22.92;13.55;;;;;;;14.47;72.87;101304.25;4381736;32;20070;-75
2021/05/28 00:41:59;;;;;;;26.08;14.25;;;;;;;14.48;72.69;101300.16;4380475;32;20394;-75
2021/05/28 00:44:28;;;;;;;22.58;14.20;;;;;;;14.42;72.76;101295.53;4373591;32;20183;-75
2021/05/28 00:46:55;;;;;;;22.85;13.95;;;;;;;14.41;73.00;101300.41;4379688;32;20073;-76
2021/05/28 00:49:20;;;;;;;24.23;14.23;;;;;;;14.34;73.04;101306.28;4382258;32;20042;-76
2021/05/28 00:51:46;;;;;;;23.25;14.02;;;;;;;14.42;73.09;101309.69;4372866;32;20398;-75
2021/05/28 00:54:12;;;;;;;23.65;14.95;;;;;;;14.32;73.42;101313.62;4383607;32;20092;-75
2021/05/28 00:56:39;;;;;;;24.20;14.93;;;;;;;14.33;73.42;101309.56;4380026;32;20042;-75
2021/05/28 00:59:05;;;;;;;22.67;14.52;;;;;;;14.35;73.31;101313.53;4374882;32;20132;-76
2021/05/28 01:01:32;;;;;;;24.92;14.70;;;;;;;14.33;73.43;101306.75;4382018;32;20109;-75
2021/05/28 01:03:57;;;;;;;23.75;15.35;;;;;;;14.31;73.50;101312.84;4379445;32;20757;-76
2021/05/28 01:06:24;;;;;;;25.15;16.10;;;;;;;14.30;73.51;101314.06;4374102;32;20082;-75
2021/05/28 01:08:50;;;;;;;24.20;15.65;;;;;;;14.28;73.71;101316.56;4381524;32;20453;-75
2021/05/28 01:11:16;;;;;;;23.60;15.02;;;;;;;14.25;73.71;101320.31;4375764;32;20082;-75
2021/05/28 01:13:42;;;;;;;26.17;16.25;;;;;;;14.29;73.37;101318.16;4381461;32;20096;-75
2021/05/28 01:16:07;;;;;;;27.08;16.10;;;;;;;14.24;73.49;101318.72;4382392;32;20058;-76
2021/05/28 01:18:33;;;;;;;26.05;16.65;;;;;;;14.23;73.69;101314.28;4375341;32;20038;-75
2021/05/28 01:20:59;;;;;;;29.25;16.37;;;;;;;14.24;73.76;101313.06;4377756;32;20487;-75
2021/05/28 01:23:25;;;;;;;29.55;16.00;;;;;;;14.24;73.86;101317.94;4382825;32;20054;-76
2021/05/28 01:25:51;;;;;;;31.55;15.00;;;;;;;14.24;73.74;101312.25;4372970;32;20061;-76
2021/05/28 01:28:16;;;;;;;22.67;14.93;;;;;;;14.35;73.25;101316.34;4384491;32;20043;-76
2021/05/28 01:30:42;;;;;;;23.65;14.87;;;;;;;14.47;72.71;101311.94;4377994;32;20094;-76
2021/05/28 01:33:09;;;;;;;23.90;13.27;;;;;;;14.46;72.46;101313.19;4375957;32;20177;-75
2021/05/28 01:35:35;;;;;;;26.00;15.13;;;;;;;14.48;72.30;101313.56;4381299;32;20431;-76
2021/05/28 01:38:05;;;;;;;30.05;15.15;;;;;;;14.45;72.42;101309.56;4377244;32;20129;-76
2021/05/28 01:40:31;;;;;;;26.90;15.05;;;;;;;14.48;72.32;101308.66;4377862;32;20498;-76
2021/05/28 01:42:57;;;;;;;22.37;14.93;;;;;;;14.38;72.30;101306.97;4381881;32;20043;-76
2021/05/28 01:45:23;;;;;;;23.33;14.38;;;;;;;14.45;72.24;101303.91;4374152;32;20113;-75
2021/05/28 01:47:49;;;;;;;23.38;14.77;;;;;;;14.46;71.95;101311.19;4382197;32;20086;-76
2021/05/28 01:50:15;;;;;;;25.08;14.40;;;;;;;14.48;71.91;101311.50;4375270;32;20406;-75
2021/05/28 01:52:42;;;;;;;22.35;13.55;;;;;;;14.50;71.80;101311.03;4380940;32;20064;-75
2021/05/28 01:55:09;;;;;;;22.80;14.10;;;;;;;14.47;71.59;101309.91;4372071;32;20160;-77
2021/05/28 01:57:36;;;;;;;24.60;14.20;;;;;;;14.55;71.37;101313.31;4375696;32;20086;-75
2021/05/28 02:00:05;;;;;;;19.45;12.93;;;;;;;14.60;71.28;101309.94;4377767;32;20903;-75
2021/05/28 02:02:31;;;;;;;19.92;13.10;;;;;;;14.57;71.22;101311.63;4381716;32;20086;-75
2021/05/28 02:04:57;;;;;;;19.83;12.95;;;;;;;14.43;71.60;101309.25;4374475;32;20121;-75
2021/05/28 02:07:23;;;;;;;20.67;12.95;;;;;;;14.46;71.29;101308.34;4383393;32;20058;-75
2021/05/28 02:09:48;;;;;;;22.73;13.18;;;;;;;14.45;71.40;101306.72;4375453;32;20472;-76
2021/05/28 02:12:14;;;;;;;21.90;13.15;;;;;;;14.50;71.36;101306.19;4374288;32;20076;-75
2021/05/28 02:14:40;;;;;;;21.98;13.20;;;;;;;14.42;71.62;101310.47;4381947;32;20104;-75
2021/05/28 02:17:06;;;;;;;19.73;13.13;;;;;;;14.38;71.58;101306.97;4374630;32;20101;-75
2021/05/28 02:19:32;;;;;;;22.67;12.88;;;;;;;14.49;71.29;101307.44;4375750;32;20406;-76
2021/05/28 02:21:57;;;;;;;21.58;13.62;;;;;;;14.49;71.37;101310.28;4381905;32;20041;-76
2021/05/28 02:24:23;;;;;;;20.90;12.65;;;;;;;14.51;71.44;101304.16;4376146;32;20117;-75
2021/05/28 02:26:50;;;;;;;19.12;12.25;;;;;;;14.54;71.22;101303.25;4379931;32;20083;-75
2021/05/28 02:29:16;;;;;;;21.33;13.70;;;;;;;14.59;70.96;101309.13;4382707;32;20105;-75
2021/05/28 02:31:42;;;;;;;18.33;12.57;;;;;;;14.62;71.06;101308.25;4375898;32;20519;-75
2021/05/28 02:34:09;;;;;;;19.27;13.35;;;;;;;14.58;71.24;101301.91;4382659;32;20117;-75
2021/05/28 02:36:34;;;;;;;23.65;12.40;;;;;;;14.65;71.08;101303.69;4378176;32;20105;-75
2021/05/28 02:39:00;;;;;;;21.48;13.57;;;;;;;14.63;70.98;101306.97;4376833;32;20415;-75
2021/05/28 02:41:26;;;;;;;21.30;13.77;;;;;;;14.63;71.11;101306.19;4383771;32;20082;-75
2021/05/28 02:43:52;;;;;;;20.17;13.27;;;;;;;14.59;71.20;101305.50;4377158;32;20446;-75
2021/05/28 02:46:18;;;;;;;22.05;13.13;;;;;;;14.64;71.16;101304.94;4381176;32;20050;-75
2021/05/28 02:48:44;;;;;;;18.83;13.60;;;;;;;14.64;71.25;101296.44;4373434;32;20088;-75
2021/05/28 02:51:10;;;;;;;19.73;13.62;;;;;;;14.71;70.95;101294.19;4375154;32;20433;-75
2021/05/28 02:53:36;;;;;;;25.23;13.75;;;;;;;14.63;71.14;101295.66;4385486;32;20395;-75
2021/05/28 02:56:05;;;;;;;21.90;14.13;;;;;;;14.69;71.27;101301.53;4379945;32;20521;-75
2021/05/28 02:58:31;;;;;;;20.23;13.40;;;;;;;14.59;71.40;101299.84;4378760;32;20038;-75
2021/05/28 03:00:58;;;;;;;22.87;13.93;;;;;;;14.64;71.42;101307.78;4382898;32;20459;-75
2021/05/28 03:03:23;;;;;;;22.37;14.05;;;;;;;14.61;71.44;101303.03;4381368;32;20121;-75
2021/05/28 03:05:50;;;;;;;22.73;13.70;;;;;;;14.65;71.18;101292.34;4379600;32;20069;-76
2021/05/28 03:08:17;;;;;;;23.25;14.60;;;;;;;14.67;71.39;101301.22;4384591;32;20081;-75
2021/05/28 03:10:43;;;;;;;22.90;14.10;;;;;;;14.74;71.38;101306.66;4375410;32;20106;-75
2021/05/28 03:13:09;;;;;;;22.65;13.93;;;;;;;14.73;71.26;101299.41;4380061;32;20132;-75
2021/05/28 03:15:35;;;;;;;22.92;14.82;;;;;;;14.86;70.91;101300.97;4380920;32;20088;-75
2021/05/28 03:18:01;;;;;;;22.98;14.52;;;;;;;14.83;70.92;101301.09;4377381;32;20087;-75
2021/05/28 03:20:34;;;;;;;25.37;15.40;;;;;;;14.88;70.68;101309.81;4382541;32;20538;-76
2021/05/28 03:23:01;;;;;;;22.60;13.88;;;;;;;14.93;70.56;101302.78;4382464;32;20081;-75
2021/05/28 03:25:27;;;;;;;22.73;14.10;;;;;;;14.94;70.38;101304.37;4372798;32;20423;-75
2021/05/28 03:27:53;;;;;;;24.65;14.07;;;;;;;14.97;70.28;101303.47;4386050;32;20034;-75
2021/05/28 03:30:20;;;;;;;22.87;13.70;;;;;;;14.98;70.26;101308.69;4379575;32;20121;-75
2021/05/28 03:32:46;;;;;;;22.75;13.95;;;;;;;15.00;70.28;101300.50;4381550;32;20161;-76
2021/05/28 03:35:12;;;;;;;22.33;13.82;;;;;;;15.02;70.18;101306.53;4385521;32;20122;-76
2021/05/28 03:37:39;;;;;;;29.67;14.77;;;;;;;14.93;69.95;101303.56;4377176;32;20446;-75
2021/05/28 03:40:06;;;;;;;20.83;13.93;;;;;;;14.99;70.01;101307.44;4379614;32;20543;-75
2021/05/28 03:42:32;;;;;;;20.55;13.65;;;;;;;15.02;69.94;101300.84;4381905;32;20113;-75
2021/05/28 03:44:58;;;;;;;22.65;12.75;;;;;;;14.98;69.98;101307.87;4376559;32;20046;-76
2021/05/28 03:47:23;;;;;;;23.75;13.77;;;;;;;15.02;69.89;101308.53;4382681;32;20443;-75
2021/05/28 03:49:49;;;;;;;25.52;13.50;;;;;;;15.05;69.77;101310.47;4381838;32;20109;-76
2021/05/28 03:52:15;;;;;;;23.50;14.40;;;;;;;15.04;69.51;101315.34;4373166;32;20087;-75
2021/05/28 03:54:41;;;;;;;26.42;13.88;;;;;;;15.01;69.86;101319.13;4383326;32;20042;-75
2021/05/28 03:57:07;;;;;;;26.08;15.98;;;;;;;15.07;70.02;101305.91;4378999;32;20082;-75
2021/05/28 03:59:34;;;;;;;24.55;14.77;;;;;;;15.10;70.03;101310.69;4383882;32;20050;-76
2021/05/28 04:02:00;;;;;;;22.92;13.85;;;;;;;15.14;69.75;101297.19;4379419;32;20050;-76
2021/05/28 04:04:25;;;;;;;24.63;14.45;;;;;;;15.13;69.69;101304.09;4379265;32;20113;-75
2021/05/28 04:06:51;;;;;;;24.10;14.87;;;;;;;15.25;69.37;101314.63;4377978;32;20050;-76
2021/05/28 04:09:18;;;;;;;23.10;13.52;;;;;;;15.30;68.94;101308.37;4383571;32;20371;-76
2021/05/28 04:11:43;;;;;;;24.15;13.95;;;;;;;15.31;69.13;101307.13;4376211;32;20584;-76
2021/05/28 04:14:09;;;;;;;22.37;14.43;;;;;;;15.33;69.04;101306.66;4382855;32;20050;-76
2021/05/28 04:16:35;;;;;;;23.67;14.60;;;;;;;15.33;68.87;101306.66;4381857;32;20148;-77
2021/05/28 04:19:01;;;;;;;23.25;14.00;;;;;;;15.32;69.10;101310.78;4376761;32;20091;-76
2021/05/28 04:21:27;;;;;;;23.40;13.95;;;;;;;15.33;68.76;101312.34;4378686;32;20086;-76
2021/05/28 04:23:52;;;;;;;26.10;14.13;;;;;;;15.38;68.84;101314.63;4381395;32;20490;-74
2021/05/28 04:26:18;;;;;;;25.10;14.75;;;;;;;15.40;68.53;101310.09;4376297;32;20476;-76
2021/05/28 04:28:44;;;;;;;25.35;14.55;;;;;;;15.36;68.77;101314.25;4381943;32;20442;-76
2021/05/28 04:31:10;;;;;;;21.67;13.62;;;;;;;15.40;69.11;101312.16;4376486;32;20053;-75
2021/05/28 04:33:35;;;;;;;20.08;14.15;;;;;;;15.43;69.13;101319.72;4378709;32;20055;-76
2021/05/28 04:36:01;;;;;;;26.23;14.75;;;;;;;15.34;69.20;101319.62;4383747;32;20076;-76
2021/05/28 04:38:27;;;;;;;22.05;13.75;;;;;;;15.33;69.32;101320.84;4380544;32;20636;-76
2021/05/28 04:40:54;;;;;;;25.33;14.77;;;;;;;15.46;69.32;101325.28;4376981;32;20155;-76
2021/05/28 04:43:21;;;;;;;23.00;14.07;;;;;;;15.49;69.22;101326.41;4383599;32;20108;-76
2021/05/28 04:45:47;;;;;;;20.15;13.90;;;;;;;15.56;68.95;101320.50;4380155;32;20108;-76
2021/05/28 04:48:12;;;;;;;23.45;14.40;;;;;;;15.65;68.83;101323.41;4376327;32;20268;-76
2021/05/28 04:50:39;;;;;;;23.83;14.98;;;;;;;15.94;67.60;101327.59;4382603;32;20568;-76
2021/05/28 04:53:06;;;;;;;29.50;15.05;;;;;;;15.90;67.65;101340.34;4377262;32;20147;-76
2021/05/28 04:55:32;;;;;;;25.55;14.52;;;;;;;15.92;67.78;101343.50;4379698;32;20074;-76
2021/05/28 04:57:59;;;;;;;23.10;14.30;;;;;;;15.91;67.59;101356.09;4380340;32;20077;-76
2021/05/28 05:00:25;;;;;;;27.52;13.85;;;;;;;16.03;67.32;101343.91;4376857;32;20034;-76
2021/05/28 05:02:52;;;;;;;23.55;13.60;;;;;;;16.02;67.50;101350.06;4376893;32;20104;-76
2021/05/28 05:05:18;;;;;;;20.17;12.93;;;;;;;16.16;67.25;101355.19;4380991;32;20082;-76
2021/05/28 05:07:43;;;;;;;23.90;14.05;;;;;;;16.22;66.96;101353.34;4372571;32;20108;-76
2021/05/28 05:10:11;;;;;;;22.65;15.13;;;;;;;16.47;65.77;101356.84;4378411;32;20091;-76
2021/05/28 05:12:38;;;;;;;21.40;13.43;;;;;;;16.63;65.38;101350.94;4381878;32;20116;-76
2021/05/28 05:15:04;;;;;;;22.42;13.90;;;;;;;16.61;65.19;101359.16;4375431;32;20094;-73
2021/05/28 05:17:30;;;;;;;20.55;13.82;;;;;;;16.59;65.19;101350.31;4382554;32;20084;-74
2021/05/28 05:19:57;;;;;;;19.42;13.43;;;;;;;16.69;64.91;101362.53;4379431;32;20085;-74
2021/05/28 05:22:23;;;;;;;20.67;14.32;;;;;;;16.73;64.78;101363.97;4376880;32;20437;-74
2021/05/28 05:24:49;;;;;;;23.55;14.23;;;;;;;16.82;64.72;101360.38;4381844;32;20483;-74
2021/05/28 05:27:15;;;;;;;24.17;14.18;;;;;;;17.01;64.35;101365.69;4378367;32;20076;-74
2021/05/28 05:29:40;;;;;;;23.50;15.25;;;;;;;17.09;64.03;101358.41;4378845;32;20435;-76
2021/05/28 05:32:07;;;;;;;25.00;16.12;;;;;;;17.18;63.48;101367.00;4380171;32;20039;-74
2021/05/28 05:34:33;;;;;;;24.58;15.20;;;;;;;17.39;63.03;101368.16;4373457;32;20082;-74
2021/05/28 05:37:01;;;;;;;31.98;17.23;;;;;;;17.45;62.68;101369.16;4380214;32;20196;-74
2021/05/28 05:39:28;;;;;;;26.92;16.67;;;;;;;17.44;61.93;101370.41;4383416;32;20090;-74
2021/05/28 05:41:54;;;;;;;23.73;16.00;;;;;;;17.59;62.08;101366.50;4371345;32;20089;-74
2021/05/28 05:44:20;;;;;;;26.40;16.40;;;;;;;17.73;61.49;101379.31;4378275;32;20545;-74
2021/05/28 05:46:46;;;;;;;28.98;16.52;;;;;;;17.80;60.90;101376.94;4382132;32;20050;-74
2021/05/28 05:49:11;;;;;;;34.10;18.05;;;;;;;17.76;61.15;101384.88;4374028;32;20687;-74
2021/05/28 05:51:37;;;;;;;25.15;16.85;;;;;;;17.90;60.83;101366.38;4380792;32;20060;-75
2021/05/28 05:54:04;;;;;;;26.85;16.52;;;;;;;18.10;60.23;101377.28;4377040;32;20718;-75
2021/05/28 05:56:30;;;;;;;29.73;17.20;;;;;;;18.32;59.71;101384.41;4378524;32;20050;-74
2021/05/28 05:58:56;;;;;;;28.48;17.33;;;;;;;18.43;59.04;101376.19;4386002;32;20042;-75
2021/05/28 06:01:22;;;;;;;29.60;17.92;;;;;;;18.65;58.42;101379.63;4375450;32;20500;-75
2021/05/28 06:03:48;;;;;;;32.13;18.48;;;;;;;18.78;57.92;101393.69;4377910;32;20526;-75
2021/05/28 06:06:13;;;;;;;30.30;17.58;;;;;;;18.92;57.42;101393.00;4381755;32;20089;-75
2021/05/28 06:08:41;;;;;;;29.35;18.33;;;;;;;19.04;56.47;101389.16;4376890;32;20058;-75
2021/05/28 06:11:06;;;;;;;26.87;17.77;;;;;;;19.15;56.39;101395.91;4377293;32;20054;-75
2021/05/28 06:13:32;;;;;;;30.30;17.60;;;;;;;19.21;55.46;101396.06;4385923;32;20105;-74
2021/05/28 06:15:58;;;;;;;28.67;17.27;;;;;;;19.26;55.63;101393.37;4376341;32;20514;-75
2021/05/28 06:18:24;;;;;;;26.12;16.90;;;;;;;19.35;55.53;101396.19;4384189;32;20059;-75
2021/05/28 06:20:49;;;;;;;29.25;16.92;;;;;;;19.49;54.91;101403.25;4383772;32;20132;-75
2021/05/28 06:23:15;;;;;;;29.48;17.70;;;;;;;19.51;54.73;101398.63;4377697;32;20078;-75
2021/05/28 06:25:41;;;;;;;30.15;18.20;;;;;;;19.62;54.55;101404.59;4380768;32;20064;-75
2021/05/28 06:28:09;;;;;;;29.12;17.15;;;;;;;19.17;55.25;101401.94;4380065;32;20073;-75
2021/05/28 06:30:35;;;;;;;32.58;19.12;;;;;;;19.32;55.07;101405.72;4373641;32;20093;-75
2021/05/28 06:33:03;;;;;;;28.48;17.33;;;;;;;19.45;55.07;101411.19;4382183;32;20046;-75
2021/05/28 06:35:29;;;;;;;34.72;18.23;;;;;;;19.70;54.25;101408.66;4381221;32;20080;-75
2021/05/28 06:37:54;;;;;;;31.17;17.80;;;;;;;19.83;53.66;101417.75;4379847;32;20046;-75
2021/05/28 06:40:20;;;;;;;27.60;18.15;;;;;;;20.07;53.34;101412.06;4372878;32;20062;-75
2021/05/28 06:42:46;;;;;;;33.22;17.90;;;;;;;20.29;52.56;101417.47;4378203;32;20517;-76
2021/05/28 06:45:12;;;;;;;31.60;19.17;;;;;;;20.53;52.16;101423.91;4372385;32;20108;-75
2021/05/28 06:47:37;;;;;;;34.60;18.25;;;;;;;20.54;51.91;101425.47;4378351;32;20547;-75
2021/05/28 06:50:04;;;;;;;36.00;18.27;;;;;;;20.73;51.56;101427.69;4373346;32;20148;-75
2021/05/28 06:52:29;;;;;;;35.47;17.85;;;;;;;20.77;51.16;101428.25;4378509;32;20112;-76
2021/05/28 06:54:55;;;;;;;32.97;18.98;;;;;;;20.65;51.25;101429.34;4376467;32;20293;-75
2021/05/28 06:57:22;;;;;;;49.75;25.42;;;;;;;20.66;51.19;101433.78;4378122;32;20108;-75
2021/05/28 06:59:48;;;;;;;33.65;17.75;;;;;;;20.68;51.28;101431.22;4377613;32;20066;-76
2021/05/28 07:02:14;;;;;;;27.83;17.80;;;;;;;20.81;51.10;101437.47;4381959;32;21501;-75
2021/05/28 07:04:39;;;;;;;30.88;18.42;;;;;;;20.85;50.61;101435.19;4378464;32;20128;-76
2021/05/28 07:07:05;;;;;;;37.03;19.87;;;;;;;20.96;50.10;101438.25;4374025;32;20758;-76
2021/05/28 07:09:31;;;;;;;32.13;19.67;;;;;;;21.09;50.30;101438.75;4376149;32;20042;-76
2021/05/28 07:11:57;;;;;;;32.83;19.35;;;;;;;21.11;50.19;101433.31;4372779;32;20133;-76
2021/05/28 07:14:24;;;;;;;37.50;19.77;;;;;;;21.29;49.86;101447.41;4365086;32;20045;-76
2021/05/28 07:16:50;;;;;;;37.15;20.02;;;;;;;21.33;49.57;101442.25;4375758;32;20086;-76
2021/05/28 07:19:16;;;;;;;32.45;18.73;;;;;;;21.39;49.84;101445.25;4379377;32;20074;-76
2021/05/28 07:21:42;;;;;;;36.60;19.60;;;;;;;21.47;49.00;101446.38;4377506;32;20097;-76
2021/05/28 07:24:08;;;;;;;29.15;19.35;;;;;;;21.42;49.29;101444.25;4376850;32;20538;-76
2021/05/28 07:26:34;;;;;;;39.63;19.17;;;;;;;21.44;49.19;101442.44;4374605;32;20046;-76
2021/05/28 07:29:00;;;;;;;31.62;19.25;;;;;;;21.41;48.81;101446.31;4374628;32;20047;-79
2021/05/28 07:31:26;;;;;;;38.03;19.65;;;;;;;21.24;49.60;101439.53;4374991;32;20047;-78
2021/05/28 07:33:52;;;;;;;32.97;19.60;;;;;;;21.13;49.63;101455.72;4375466;32;20050;-77
2021/05/28 07:36:18;;;;;;;32.95;20.45;;;;;;;20.93;50.17;101444.16;4374437;32;20054;-77
2021/05/28 07:38:45;;;;;;;33.35;19.95;;;;;;;20.86;50.51;101444.56;4369236;32;20043;-76
2021/05/28 07:41:10;;;;;;;34.75;20.60;;;;;;;20.92;50.63;101451.16;4372972;32;20104;-76
2021/05/28 07:43:37;;;;;;;29.40;19.25;;;;;;;20.38;52.11;101443.91;4371794;32;20093;-76
2021/05/28 07:46:03;;;;;;;39.63;20.98;;;;;;;20.66;51.90;101448.09;4373565;32;20062;-74
2021/05/28 07:48:30;;;;;;;40.55;21.35;;;;;;;20.75;51.77;101452.94;4375152;32;20597;-79
2021/05/28 07:50:58;;;;;;;34.53;20.70;;;;;;;20.82;51.34;101452.53;4373247;32;20548;-77
2021/05/28 07:53:27;;;;;;;35.38;20.67;;;;;;;20.77;50.99;101450.37;4373889;32;20081;-77
2021/05/28 07:55:55;;;;;;;32.72;20.83;;;;;;;20.75;51.49;101452.94;4363850;32;20086;-78
2021/05/28 07:58:21;;;;;;;38.38;21.52;;;;;;;20.71;51.68;101450.25;4372391;32;20088;-76
2021/05/28 08:00:47;;;;;;;31.17;19.90;;;;;;;20.93;50.79;101453.50;4375871;32;20113;-76
2021/05/28 08:03:13;;;;;;;36.08;20.52;;;;;;;21.15;50.47;101451.09;4371094;32;20086;-76
2021/05/28 08:05:40;;;;;;;35.17;20.62;;;;;;;21.30;49.87;101454.72;4374087;32;20100;-76
2021/05/28 08:08:09;;;;;;;31.37;19.35;;;;;;;21.53;49.28;101455.84;4375517;32;20073;-76
2021/05/28 08:10:36;;;;;;;33.90;20.15;;;;;;;21.89;48.48;101457.47;4373076;32;20105;-77
2021/05/28 08:13:02;;;;;;;37.85;20.73;;;;;;;22.05;47.83;101456.87;4373468;32;20843;-79
2021/05/28 08:15:31;;;;;;;38.45;20.60;;;;;;;22.18;47.45;101455.25;4371471;32;20078;-78
2021/05/28 08:17:57;;;;;;;36.22;19.23;;;;;;;22.43;46.68;101465.22;4360431;32;20054;-80
2021/05/28 08:20:23;;;;;;;32.63;17.23;;;;;;;22.53;46.05;101467.47;4377473;32;20540;-79
2021/05/28 08:22:51;;;;;;;31.80;18.58;;;;;;;22.80;44.54;101469.06;4373239;32;20085;-77
2021/05/28 08:25:18;;;;;;;36.85;17.58;;;;;;;22.85;44.20;101465.44;4373835;32;20093;-75
2021/05/28 08:27:44;;;;;;;34.88;19.87;;;;;;;23.01;44.19;101471.34;4374406;32;21149;-76
2021/05/28 08:30:10;;;;;;;36.67;19.58;;;;;;;23.10;44.23;101465.44;4370503;32;20535;-75
2021/05/28 08:32:36;;;;;;;36.65;18.73;;;;;;;23.07;44.25;101465.69;4373966;32;20072;-76
2021/05/28 08:35:03;;;;;;;30.67;18.58;;;;;;;23.25;43.83;101465.31;4372601;32;20082;-76
2021/05/28 08:37:28;;;;;;;39.10;20.05;;;;;;;23.28;43.16;101467.97;4361705;32;20116;-76
2021/05/28 08:39:54;;;;;;;40.58;19.08;;;;;;;23.70;42.29;101473.00;4373996;32;20172;-76
2021/05/28 08:42:21;;;;;;;32.03;18.17;;;;;;;23.76;42.13;101468.06;4372227;32;20081;-76
2021/05/28 08:44:48;;;;;;;35.75;16.52;;;;;;;24.12;41.09;101475.91;4375387;32;20090;-77
2021/05/28 08:47:16;;;;;;;27.35;14.35;;;;;;;24.63;39.80;101478.44;4371558;32;20113;-76
2021/05/28 08:49:47;;;;;;;22.50;13.65;;;;;;;24.87;38.57;101475.94;4373912;32;20082;-76
2021/05/28 08:52:15;;;;;;;26.17;14.65;;;;;;;25.02;37.61;101482.25;4372768;32;20086;-76
2021/05/28 08:54:40;;;;;;;25.73;14.23;;;;;;;24.84;37.68;101476.16;4371824;32;20056;-76
2021/05/28 08:57:06;;;;;;;26.48;12.93;;;;;;;24.86;38.17;101474.37;4373076;32;20429;-76
2021/05/28 08:59:32;;;;;;;26.40;14.10;;;;;;;25.00;37.91;101476.19;4371208;32;20574;-76
2021/05/28 09:01:58;;;;;;;24.20;13.10;;;;;;;25.06;37.48;101479.06;4370086;32;20074;-74
2021/05/28 09:04:23;;;;;;;21.30;13.88;;;;;;;25.09;37.45;101480.91;4372204;32;20515;-74
2021/05/28 09:06:50;;;;;;;19.08;12.05;;;;;;;24.99;37.32;101474.63;4372323;32;21488;-75
2021/05/28 09:09:19;;;;;;;19.95;11.38;;;;;;;25.38;36.46;101486.22;4373897;32;20112;-74
2021/05/28 09:12:05;;;;;;;20.15;11.55;;;;;;;25.46;36.15;101489.38;4370868;32;20073;-74
2021/05/28 09:17:12;;;;;;;17.05;10.52;;;;;;;26.14;34.33;101484.53;3977449;32;15160714;-73
2021/05/28 09:19:39;;;;;;;14.98;10.43;;;;;;;26.14;34.33;101484.53;4434457;32;20056;-74
2021/05/28 09:24:43;;;;;;;18.42;10.40;;;;;;;24.76;35.87;101461.50;3967959;32;15028622;-76
2021/05/28 09:27:28;;;;;;;18.00;9.60;;;;;;;24.76;35.87;101461.50;4416440;32;20077;-74
2021/05/28 09:32:38;;;;;;;13.60;8.88;;;;;;;24.51;35.95;101461.69;3962210;32;15023559;-73
2021/05/28 09:35:08;;;;;;;19.87;7.07;;;;;;;24.80;34.87;101458.38;4417329;32;20379;-74
2021/05/28 09:40:16;;;;;;;11.65;7.28;;;;;;;26.71;31.64;101473.03;3962979;32;15025046;-81
2021/05/28 09:43:03;;;;;;;13.52;7.05;;;;;;;26.71;31.64;101473.03;4414982;32;20520;-77
2021/05/28 09:45:37;;;;;;;13.50;7.65;;;;;;;26.58;30.86;101460.47;4418264;32;20106;-78
2021/05/28 09:48:19;;;;;;;12.90;7.12;;;;;;;26.76;31.15;101460.69;4415295;32;20082;-76
2021/05/28 09:50:48;;;;;;;11.40;7.32;;;;;;;27.00;30.85;101460.75;4414532;32;20096;-73
2021/05/28 09:53:45;;;;;;;14.05;7.12;;;;;;;27.44;30.54;101468.34;4415059;32;20112;-77
2021/05/28 09:59:06;;;;;;;11.50;6.55;;;;;;;28.27;28.84;101464.56;3978320;32;15043714;-74
2021/05/28 10:01:35;;;;;;;14.65;8.20;;;;;;;28.23;28.21;101462.00;4427801;32;20507;-75
2021/05/28 10:04:10;;;;;;;13.52;7.57;;;;;;;28.33;28.09;101460.28;4428498;32;20580;-73
2021/05/28 10:06:39;;;;;;;10.93;7.37;;;;;;;28.85;27.47;101460.66;4430380;32;20097;-76
2021/05/28 10:09:08;;;;;;;11.63;7.32;;;;;;;28.97;27.39;101458.38;4427643;32;20095;-82
2021/05/28 10:11:35;;;;;;;13.40;7.53;;;;;;;28.83;27.71;101451.72;4424757;32;20427;-75
2021/05/28 10:14:01;;;;;;;12.32;7.90;;;;;;;28.48;27.90;101456.97;4416807;32;21647;-75
2021/05/28 10:16:29;;;;;;;17.48;7.85;;;;;;;28.50;28.06;101448.53;4425835;32;20134;-73
2021/05/28 10:18:56;;;;;;;11.93;8.07;;;;;;;29.10;27.55;101443.16;4426954;32;20041;-74
2021/05/28 10:21:23;;;;;;;14.73;8.25;;;;;;;29.21;27.37;101440.09;4423769;32;20595;-74
2021/05/28 10:23:50;;;;;;;11.43;7.65;;;;;;;29.68;27.07;101450.59;4425148;32;20077;-73
2021/05/28 10:26:26;;;;;;;15.00;7.72;;;;;;;30.22;25.79;101453.00;4418128;32;20536;-74
2021/05/28 10:28:52;;;;;;;13.77;7.78;;;;;;;30.51;25.37;101449.72;4426783;32;20100;-73
2021/05/28 10:31:18;;;;;;;11.88;7.15;;;;;;;29.72;26.52;101448.16;4425177;32;20037;-75
2021/05/28 10:33:49;;;;;;;13.27;7.10;;;;;;;30.26;25.86;101444.72;4424519;32;20108;-74
2021/05/28 10:36:39;;;;;;;17.48;7.62;;;;;;;30.71;25.22;101445.31;4428843;32;20080;-75
2021/05/28 10:39:09;;;;;;;12.05;7.18;;;;;;;31.18;24.59;101442.38;4423314;32;20063;-75
2021/05/28 10:41:36;;;;;;;11.18;7.40;;;;;;;30.78;24.72;101441.75;4429047;32;20455;-75
2021/05/28 10:44:06;;;;;;;8.95;6.93;;;;;;;30.97;24.30;101444.47;4426775;32;20042;-75
2021/05/28 10:46:32;;;;;;;13.13;6.65;;;;;;;30.82;24.51;101445.09;4429033;32;20098;-74
2021/05/28 10:56:45;;;;;;;11.32;6.40;;;;;;;30.64;25.09;101451.81;3963220;32;15022524;-74
2021/05/28 10:59:15;;;;;;;10.88;6.60;;;;;;;30.64;25.09;101451.81;4418060;32;20084;-77
2021/05/28 11:04:23;;;;;;;7.22;5.22;;;;;;;30.51;24.12;101449.72;3965483;32;15722617;-77
2021/05/28 11:15:20;;;;;;;10.75;6.72;;;;;;;30.29;24.93;101441.50;3974331;32;15025328;-77
2021/05/28 11:18:10;;;;;;;11.52;6.10;;;;;;;30.29;24.93;101441.50;4425094;32;20080;-78
2021/05/28 11:20:38;;;;;;;10.23;5.93;;;;;;;30.28;25.05;101434.13;4427053;32;20045;-77
2021/05/28 11:23:21;;;;;;;10.15;5.50;;;;;;;30.71;24.37;101440.28;4427612;32;20064;-75
2021/05/28 11:25:51;;;;;;;11.52;5.60;;;;;;;30.81;24.35;101437.72;4430202;32;21536;-75
2021/05/28 11:28:18;;;;;;;11.65;5.65;;;;;;;31.09;23.92;101434.13;4431038;32;20057;-77
2021/05/28 11:31:00;;;;;;;9.82;5.68;;;;;;;31.49;23.63;101442.12;4432186;32;20440;-76
2021/05/28 11:36:18;;;;;;;8.53;4.93;;;;;;;32.16;22.84;101436.03;3991189;31;15017149;-77
2021/05/28 11:38:58;;;;;;;6.37;4.32;;;;;;;31.55;23.20;101431.09;4444467;32;20239;-78
2021/05/28 11:44:22;;;;;;;10.73;5.00;;;;;;;33.16;21.44;101438.78;3968605;31;15709977;-76
2021/05/28 11:46:50;;;;;;;7.62;5.07;;;;;;;33.16;21.44;101438.78;4435435;32;20135;-77